sensor_id;sensor_type;location;lat;lon;timestamp;P1;durP1;ratioP1;P2;durP2;ratioP2
71038;SDS011;58692;43.212;27.908;2024-03-02T00:00:18;16.05;;;5.32;;
71038;SDS011;58692;43.212;27.908;2024-03-02T00:02:46;17.45;;;5.00;;
71038;SDS011;58692;43.212;27.908;2024-03-02T00:05:13;23.23;;;5.38;;
71038;SDS011;58692;43.212;27.908;2024-03-02T00:07:43;17.30;;;5.37;;
71038;SDS011;58692;43.212;27.908;2024-03-02T00:10:11;17.40;;;5.00;;
71038;SDS011;58692;43.212;27.908;2024-03-02T00:12:39;16.70;;;5.25;;
71038;SDS011;58692;43.212;27.908;2024-03-02T00:15:07;16.25;;;5.18;;
71038;SDS011;58692;43.212;27.908;2024-03-02T00:17:58;21.20;;;5.22;;
71038;SDS011;58692;43.212;27.908;2024-03-02T00:20:24;12.70;;;4.33;;
71038;SDS011;58692;43.212;27.908;2024-03-02T00:22:55;17.17;;;5.38;;
71038;SDS011;58692;43.212;27.908;2024-03-02T00:25:36;16.40;;;5.13;;
71038;SDS011;58692;43.212;27.908;2024-03-02T00:28:04;16.50;;;5.13;;
71038;SDS011;58692;43.212;27.908;2024-03-02T00:30:42;15.83;;;5.20;;
71038;SDS011;58692;43.212;27.908;2024-03-02T00:33:11;15.43;;;4.72;;
71038;SDS011;58692;43.212;27.908;2024-03-02T00:35:37;15.95;;;4.47;;
71038;SDS011;58692;43.212;27.908;2024-03-02T00:38:04;16.97;;;4.80;;
71038;SDS011;58692;43.212;27.908;2024-03-02T00:40:31;17.92;;;4.85;;
71038;SDS011;58692;43.212;27.908;2024-03-02T00:42:57;17.10;;;4.97;;
71038;SDS011;58692;43.212;27.908;2024-03-02T00:45:23;12.55;;;4.15;;
71038;SDS011;58692;43.212;27.908;2024-03-02T00:47:50;17.35;;;4.90;;
71038;SDS011;58692;43.212;27.908;2024-03-02T00:50:16;16.03;;;4.77;;
71038;SDS011;58692;43.212;27.908;2024-03-02T00:52:42;18.13;;;4.88;;
71038;SDS011;58692;43.212;27.908;2024-03-02T00:55:08;17.77;;;5.43;;
71038;SDS011;58692;43.212;27.908;2024-03-02T00:57:34;17.80;;;5.37;;
71038;SDS011;58692;43.212;27.908;2024-03-02T01:00:00;16.67;;;5.05;;
71038;SDS011;58692;43.212;27.908;2024-03-02T01:02:27;16.95;;;5.13;;
71038;SDS011;58692;43.212;27.908;2024-03-02T01:04:54;15.43;;;5.70;;
71038;SDS011;58692;43.212;27.908;2024-03-02T01:07:20;16.17;;;5.73;;
71038;SDS011;58692;43.212;27.908;2024-03-02T01:09:45;18.13;;;5.13;;
71038;SDS011;58692;43.212;27.908;2024-03-02T01:12:11;14.55;;;5.18;;
71038;SDS011;58692;43.212;27.908;2024-03-02T01:14:36;15.30;;;5.07;;
71038;SDS011;58692;43.212;27.908;2024-03-02T01:17:02;17.55;;;5.97;;
71038;SDS011;58692;43.212;27.908;2024-03-02T01:19:29;20.37;;;5.00;;
71038;SDS011;58692;43.212;27.908;2024-03-02T01:21:55;18.60;;;6.35;;
71038;SDS011;58692;43.212;27.908;2024-03-02T01:24:21;17.92;;;5.15;;
71038;SDS011;58692;43.212;27.908;2024-03-02T01:26:47;13.63;;;5.00;;
71038;SDS011;58692;43.212;27.908;2024-03-02T01:29:13;16.90;;;5.60;;
71038;SDS011;58692;43.212;27.908;2024-03-02T01:31:38;19.03;;;5.67;;
71038;SDS011;58692;43.212;27.908;2024-03-02T01:34:07;18.52;;;6.13;;
71038;SDS011;58692;43.212;27.908;2024-03-02T01:36:33;19.75;;;5.40;;
71038;SDS011;58692;43.212;27.908;2024-03-02T01:38:58;16.77;;;5.17;;
71038;SDS011;58692;43.212;27.908;2024-03-02T01:41:24;17.20;;;5.65;;
71038;SDS011;58692;43.212;27.908;2024-03-02T01:43:50;19.57;;;5.30;;
71038;SDS011;58692;43.212;27.908;2024-03-02T01:46:16;17.25;;;5.63;;
71038;SDS011;58692;43.212;27.908;2024-03-02T01:48:41;19.90;;;5.90;;
71038;SDS011;58692;43.212;27.908;2024-03-02T01:51:07;18.92;;;5.88;;
71038;SDS011;58692;43.212;27.908;2024-03-02T01:53:33;19.07;;;5.50;;
71038;SDS011;58692;43.212;27.908;2024-03-02T01:55:59;16.13;;;5.60;;
71038;SDS011;58692;43.212;27.908;2024-03-02T01:58:26;19.13;;;6.15;;
71038;SDS011;58692;43.212;27.908;2024-03-02T02:00:52;17.88;;;6.07;;
71038;SDS011;58692;43.212;27.908;2024-03-02T02:03:18;21.23;;;5.93;;
71038;SDS011;58692;43.212;27.908;2024-03-02T02:05:44;19.60;;;6.28;;
71038;SDS011;58692;43.212;27.908;2024-03-02T02:08:10;14.10;;;5.68;;
71038;SDS011;58692;43.212;27.908;2024-03-02T02:10:36;19.87;;;6.23;;
71038;SDS011;58692;43.212;27.908;2024-03-02T02:13:02;16.50;;;5.97;;
71038;SDS011;58692;43.212;27.908;2024-03-02T02:15:29;19.67;;;6.32;;
71038;SDS011;58692;43.212;27.908;2024-03-02T02:17:56;17.85;;;6.03;;
71038;SDS011;58692;43.212;27.908;2024-03-02T02:20:23;17.38;;;6.60;;
71038;SDS011;58692;43.212;27.908;2024-03-02T02:22:57;16.40;;;5.63;;
71038;SDS011;58692;43.212;27.908;2024-03-02T02:25:23;22.30;;;6.60;;
71038;SDS011;58692;43.212;27.908;2024-03-02T02:27:49;16.25;;;5.78;;
71038;SDS011;58692;43.212;27.908;2024-03-02T02:30:18;20.70;;;5.97;;
71038;SDS011;58692;43.212;27.908;2024-03-02T02:32:45;15.90;;;4.93;;
71038;SDS011;58692;43.212;27.908;2024-03-02T02:35:10;15.73;;;5.82;;
71038;SDS011;58692;43.212;27.908;2024-03-02T02:37:36;18.40;;;5.40;;
71038;SDS011;58692;43.212;27.908;2024-03-02T02:40:02;17.42;;;5.28;;
71038;SDS011;58692;43.212;27.908;2024-03-02T02:42:30;17.65;;;5.53;;
71038;SDS011;58692;43.212;27.908;2024-03-02T02:44:55;16.80;;;5.50;;
71038;SDS011;58692;43.212;27.908;2024-03-02T02:47:21;15.40;;;5.70;;
71038;SDS011;58692;43.212;27.908;2024-03-02T02:49:47;14.97;;;6.03;;
71038;SDS011;58692;43.212;27.908;2024-03-02T02:52:12;17.37;;;5.90;;
71038;SDS011;58692;43.212;27.908;2024-03-02T02:54:38;20.50;;;6.60;;
71038;SDS011;58692;43.212;27.908;2024-03-02T02:57:03;18.47;;;6.13;;
71038;SDS011;58692;43.212;27.908;2024-03-02T02:59:29;18.70;;;5.95;;
71038;SDS011;58692;43.212;27.908;2024-03-02T03:01:55;16.27;;;5.37;;
71038;SDS011;58692;43.212;27.908;2024-03-02T03:04:20;18.25;;;6.20;;
71038;SDS011;58692;43.212;27.908;2024-03-02T03:06:46;16.33;;;5.83;;
71038;SDS011;58692;43.212;27.908;2024-03-02T03:09:11;21.10;;;6.05;;
71038;SDS011;58692;43.212;27.908;2024-03-02T03:11:37;19.37;;;5.93;;
71038;SDS011;58692;43.212;27.908;2024-03-02T03:14:03;14.10;;;5.33;;
71038;SDS011;58692;43.212;27.908;2024-03-02T03:16:30;23.83;;;6.15;;
71038;SDS011;58692;43.212;27.908;2024-03-02T03:18:55;16.02;;;5.32;;
71038;SDS011;58692;43.212;27.908;2024-03-02T03:21:21;19.27;;;6.17;;
71038;SDS011;58692;43.212;27.908;2024-03-02T03:23:46;18.53;;;5.27;;
71038;SDS011;58692;43.212;27.908;2024-03-02T03:26:12;21.35;;;6.60;;
71038;SDS011;58692;43.212;27.908;2024-03-02T03:28:38;16.80;;;6.60;;
71038;SDS011;58692;43.212;27.908;2024-03-02T03:31:04;18.45;;;5.82;;
71038;SDS011;58692;43.212;27.908;2024-03-02T03:33:29;17.33;;;5.60;;
71038;SDS011;58692;43.212;27.908;2024-03-02T03:35:55;16.00;;;6.25;;
71038;SDS011;58692;43.212;27.908;2024-03-02T03:38:20;21.43;;;5.80;;
71038;SDS011;58692;43.212;27.908;2024-03-02T03:40:46;19.08;;;6.43;;
71038;SDS011;58692;43.212;27.908;2024-03-02T03:43:12;15.60;;;5.70;;
71038;SDS011;58692;43.212;27.908;2024-03-02T03:45:38;15.48;;;5.80;;
71038;SDS011;58692;43.212;27.908;2024-03-02T03:48:03;18.73;;;5.83;;
71038;SDS011;58692;43.212;27.908;2024-03-02T03:50:29;19.42;;;6.38;;
71038;SDS011;58692;43.212;27.908;2024-03-02T03:52:55;18.43;;;5.93;;
71038;SDS011;58692;43.212;27.908;2024-03-02T03:55:20;15.73;;;5.85;;
71038;SDS011;58692;43.212;27.908;2024-03-02T03:57:46;14.73;;;5.03;;
71038;SDS011;58692;43.212;27.908;2024-03-02T04:00:12;16.63;;;5.53;;
71038;SDS011;58692;43.212;27.908;2024-03-02T04:02:38;15.53;;;6.03;;
71038;SDS011;58692;43.212;27.908;2024-03-02T04:05:04;15.10;;;5.55;;
71038;SDS011;58692;43.212;27.908;2024-03-02T04:07:34;22.15;;;6.20;;
71038;SDS011;58692;43.212;27.908;2024-03-02T04:10:05;17.02;;;5.93;;
71038;SDS011;58692;43.212;27.908;2024-03-02T04:12:33;15.07;;;5.78;;
71038;SDS011;58692;43.212;27.908;2024-03-02T04:15:00;16.33;;;5.47;;
71038;SDS011;58692;43.212;27.908;2024-03-02T04:17:27;15.65;;;5.78;;
71038;SDS011;58692;43.212;27.908;2024-03-02T04:19:52;17.73;;;6.55;;
71038;SDS011;58692;43.212;27.908;2024-03-02T04:22:18;18.97;;;5.50;;
71038;SDS011;58692;43.212;27.908;2024-03-02T04:24:43;14.17;;;5.43;;
71038;SDS011;58692;43.212;27.908;2024-03-02T04:27:09;16.77;;;5.97;;
71038;SDS011;58692;43.212;27.908;2024-03-02T04:29:35;16.37;;;5.40;;
71038;SDS011;58692;43.212;27.908;2024-03-02T04:32:00;16.92;;;5.97;;
71038;SDS011;58692;43.212;27.908;2024-03-02T04:34:26;23.03;;;6.40;;
71038;SDS011;58692;43.212;27.908;2024-03-02T04:36:51;17.23;;;5.73;;
71038;SDS011;58692;43.212;27.908;2024-03-02T04:39:17;16.27;;;5.75;;
71038;SDS011;58692;43.212;27.908;2024-03-02T04:41:43;14.23;;;4.70;;
71038;SDS011;58692;43.212;27.908;2024-03-02T04:44:08;14.93;;;5.63;;
71038;SDS011;58692;43.212;27.908;2024-03-02T04:46:34;17.70;;;5.50;;
71038;SDS011;58692;43.212;27.908;2024-03-02T04:48:59;15.38;;;5.72;;
71038;SDS011;58692;43.212;27.908;2024-03-02T04:51:25;15.70;;;5.10;;
71038;SDS011;58692;43.212;27.908;2024-03-02T04:53:52;16.25;;;5.35;;
71038;SDS011;58692;43.212;27.908;2024-03-02T04:56:17;16.60;;;6.20;;
71038;SDS011;58692;43.212;27.908;2024-03-02T04:58:58;14.88;;;5.10;;
71038;SDS011;58692;43.212;27.908;2024-03-02T05:01:24;18.38;;;5.53;;
71038;SDS011;58692;43.212;27.908;2024-03-02T05:03:49;15.83;;;5.37;;
71038;SDS011;58692;43.212;27.908;2024-03-02T05:06:15;17.57;;;5.73;;
71038;SDS011;58692;43.212;27.908;2024-03-02T05:08:40;14.15;;;5.68;;
71038;SDS011;58692;43.212;27.908;2024-03-02T05:11:06;21.70;;;6.50;;
71038;SDS011;58692;43.212;27.908;2024-03-02T05:13:47;15.48;;;5.13;;
71038;SDS011;58692;43.212;27.908;2024-03-02T05:16:12;15.53;;;6.20;;
71038;SDS011;58692;43.212;27.908;2024-03-02T05:18:38;18.13;;;5.85;;
71038;SDS011;58692;43.212;27.908;2024-03-02T05:21:04;19.67;;;5.83;;
71038;SDS011;58692;43.212;27.908;2024-03-02T05:23:29;16.25;;;5.60;;
71038;SDS011;58692;43.212;27.908;2024-03-02T05:25:56;15.45;;;6.28;;
71038;SDS011;58692;43.212;27.908;2024-03-02T05:28:21;15.03;;;5.70;;
71038;SDS011;58692;43.212;27.908;2024-03-02T05:30:47;16.30;;;6.47;;
71038;SDS011;58692;43.212;27.908;2024-03-02T05:33:12;17.33;;;6.32;;
71038;SDS011;58692;43.212;27.908;2024-03-02T05:35:38;13.63;;;5.33;;
71038;SDS011;58692;43.212;27.908;2024-03-02T05:38:03;19.03;;;6.00;;
71038;SDS011;58692;43.212;27.908;2024-03-02T05:40:29;17.20;;;6.23;;
71038;SDS011;58692;43.212;27.908;2024-03-02T05:42:54;17.47;;;5.50;;
71038;SDS011;58692;43.212;27.908;2024-03-02T05:45:20;16.58;;;5.95;;
71038;SDS011;58692;43.212;27.908;2024-03-02T05:47:46;15.90;;;5.60;;
71038;SDS011;58692;43.212;27.908;2024-03-02T05:50:11;19.55;;;6.13;;
71038;SDS011;58692;43.212;27.908;2024-03-02T05:52:37;14.87;;;5.90;;
71038;SDS011;58692;43.212;27.908;2024-03-02T05:55:04;15.00;;;6.03;;
71038;SDS011;58692;43.212;27.908;2024-03-02T05:57:30;16.42;;;6.47;;
71038;SDS011;58692;43.212;27.908;2024-03-02T06:00:11;13.73;;;5.53;;
71038;SDS011;58692;43.212;27.908;2024-03-02T06:02:39;19.73;;;6.40;;
71038;SDS011;58692;43.212;27.908;2024-03-02T06:05:06;16.75;;;7.28;;
71038;SDS011;58692;43.212;27.908;2024-03-02T06:07:32;14.75;;;6.07;;
71038;SDS011;58692;43.212;27.908;2024-03-02T06:09:58;15.57;;;6.65;;
71038;SDS011;58692;43.212;27.908;2024-03-02T06:12:24;17.03;;;5.73;;
71038;SDS011;58692;43.212;27.908;2024-03-02T06:14:49;17.20;;;6.03;;
71038;SDS011;58692;43.212;27.908;2024-03-02T06:17:15;18.10;;;6.75;;
71038;SDS011;58692;43.212;27.908;2024-03-02T06:19:41;15.67;;;5.53;;
71038;SDS011;58692;43.212;27.908;2024-03-02T06:22:06;16.30;;;5.95;;
71038;SDS011;58692;43.212;27.908;2024-03-02T06:24:35;13.85;;;5.30;;
71038;SDS011;58692;43.212;27.908;2024-03-02T06:27:02;17.33;;;6.13;;
71038;SDS011;58692;43.212;27.908;2024-03-02T06:29:29;16.58;;;5.60;;
71038;SDS011;58692;43.212;27.908;2024-03-02T06:31:54;15.75;;;5.35;;
71038;SDS011;58692;43.212;27.908;2024-03-02T06:34:20;15.53;;;5.67;;
71038;SDS011;58692;43.212;27.908;2024-03-02T06:36:45;20.50;;;5.70;;
71038;SDS011;58692;43.212;27.908;2024-03-02T06:39:11;14.23;;;5.25;;
71038;SDS011;58692;43.212;27.908;2024-03-02T06:41:37;15.13;;;5.67;;
71038;SDS011;58692;43.212;27.908;2024-03-02T06:44:03;17.05;;;6.20;;
71038;SDS011;58692;43.212;27.908;2024-03-02T06:46:29;16.30;;;5.40;;
71038;SDS011;58692;43.212;27.908;2024-03-02T06:48:54;14.27;;;5.53;;
71038;SDS011;58692;43.212;27.908;2024-03-02T06:51:20;15.77;;;5.70;;
71038;SDS011;58692;43.212;27.908;2024-03-02T06:53:46;15.80;;;5.60;;
71038;SDS011;58692;43.212;27.908;2024-03-02T06:56:11;13.53;;;5.30;;
71038;SDS011;58692;43.212;27.908;2024-03-02T06:58:37;16.40;;;6.57;;
71038;SDS011;58692;43.212;27.908;2024-03-02T07:01:03;17.47;;;6.17;;
71038;SDS011;58692;43.212;27.908;2024-03-02T07:03:28;13.68;;;5.72;;
71038;SDS011;58692;43.212;27.908;2024-03-02T07:05:54;15.30;;;5.17;;
71038;SDS011;58692;43.212;27.908;2024-03-02T07:08:20;14.13;;;4.68;;
71038;SDS011;58692;43.212;27.908;2024-03-02T07:10:47;17.93;;;5.60;;
71038;SDS011;58692;43.212;27.908;2024-03-02T07:13:12;15.90;;;5.80;;
71038;SDS011;58692;43.212;27.908;2024-03-02T07:15:38;14.35;;;5.13;;
71038;SDS011;58692;43.212;27.908;2024-03-02T07:18:19;14.17;;;5.57;;
71038;SDS011;58692;43.212;27.908;2024-03-02T07:20:45;14.40;;;5.40;;
71038;SDS011;58692;43.212;27.908;2024-03-02T07:23:10;14.63;;;6.53;;
71038;SDS011;58692;43.212;27.908;2024-03-02T07:25:36;16.15;;;5.35;;
71038;SDS011;58692;43.212;27.908;2024-03-02T07:28:02;17.03;;;5.60;;
71038;SDS011;58692;43.212;27.908;2024-03-02T07:30:29;13.82;;;5.78;;
71038;SDS011;58692;43.212;27.908;2024-03-02T07:32:55;15.23;;;5.93;;
71038;SDS011;58692;43.212;27.908;2024-03-02T07:35:20;17.67;;;5.23;;
71038;SDS011;58692;43.212;27.908;2024-03-02T07:37:47;16.25;;;6.03;;
71038;SDS011;58692;43.212;27.908;2024-03-02T07:40:12;13.80;;;5.23;;
71038;SDS011;58692;43.212;27.908;2024-03-02T07:42:39;17.38;;;5.78;;
71038;SDS011;58692;43.212;27.908;2024-03-02T07:45:05;12.27;;;5.20;;
71038;SDS011;58692;43.212;27.908;2024-03-02T07:47:32;17.00;;;5.03;;
71038;SDS011;58692;43.212;27.908;2024-03-02T07:50:01;13.85;;;5.03;;
71038;SDS011;58692;43.212;27.908;2024-03-02T07:52:27;16.25;;;5.57;;
71038;SDS011;58692;43.212;27.908;2024-03-02T07:54:54;13.25;;;5.35;;
71038;SDS011;58692;43.212;27.908;2024-03-02T07:57:20;16.08;;;5.22;;
71038;SDS011;58692;43.212;27.908;2024-03-02T07:59:46;14.57;;;5.07;;
71038;SDS011;58692;43.212;27.908;2024-03-02T08:02:12;12.68;;;4.90;;
71038;SDS011;58692;43.212;27.908;2024-03-02T08:04:38;14.82;;;4.97;;
71038;SDS011;58692;43.212;27.908;2024-03-02T08:07:04;15.87;;;5.93;;
71038;SDS011;58692;43.212;27.908;2024-03-02T08:09:29;15.43;;;6.20;;
71038;SDS011;58692;43.212;27.908;2024-03-02T08:11:55;19.45;;;5.50;;
71038;SDS011;58692;43.212;27.908;2024-03-02T08:14:23;16.93;;;6.00;;
71038;SDS011;58692;43.212;27.908;2024-03-02T08:16:49;18.45;;;5.68;;
71038;SDS011;58692;43.212;27.908;2024-03-02T08:19:15;16.95;;;5.20;;
71038;SDS011;58692;43.212;27.908;2024-03-02T08:21:42;11.35;;;4.40;;
71038;SDS011;58692;43.212;27.908;2024-03-02T08:24:08;17.15;;;5.10;;
71038;SDS011;58692;43.212;27.908;2024-03-02T08:26:35;18.57;;;5.00;;
71038;SDS011;58692;43.212;27.908;2024-03-02T08:29:01;12.65;;;4.95;;
71038;SDS011;58692;43.212;27.908;2024-03-02T08:31:28;17.85;;;5.32;;
71038;SDS011;58692;43.212;27.908;2024-03-02T08:33:54;16.97;;;5.17;;
71038;SDS011;58692;43.212;27.908;2024-03-02T08:36:20;16.23;;;5.10;;
71038;SDS011;58692;43.212;27.908;2024-03-02T08:38:46;18.02;;;5.45;;
71038;SDS011;58692;43.212;27.908;2024-03-02T08:41:14;13.15;;;5.38;;
71038;SDS011;58692;43.212;27.908;2024-03-02T08:43:41;17.75;;;4.93;;
71038;SDS011;58692;43.212;27.908;2024-03-02T08:46:07;12.70;;;4.63;;
71038;SDS011;58692;43.212;27.908;2024-03-02T08:48:33;11.57;;;4.60;;
71038;SDS011;58692;43.212;27.908;2024-03-02T08:50:59;13.63;;;4.78;;
71038;SDS011;58692;43.212;27.908;2024-03-02T08:53:25;15.27;;;4.73;;
71038;SDS011;58692;43.212;27.908;2024-03-02T08:55:51;16.13;;;4.82;;
71038;SDS011;58692;43.212;27.908;2024-03-02T08:58:17;15.30;;;4.88;;
71038;SDS011;58692;43.212;27.908;2024-03-02T09:00:42;11.90;;;4.17;;
71038;SDS011;58692;43.212;27.908;2024-03-02T09:03:08;15.93;;;5.38;;
71038;SDS011;58692;43.212;27.908;2024-03-02T09:05:35;17.80;;;5.18;;
71038;SDS011;58692;43.212;27.908;2024-03-02T09:08:00;17.47;;;5.20;;
71038;SDS011;58692;43.212;27.908;2024-03-02T09:10:26;11.25;;;5.15;;
71038;SDS011;58692;43.212;27.908;2024-03-02T09:12:52;12.70;;;4.17;;
71038;SDS011;58692;43.212;27.908;2024-03-02T09:15:17;14.53;;;4.97;;
71038;SDS011;58692;43.212;27.908;2024-03-02T09:17:43;12.23;;;4.63;;
71038;SDS011;58692;43.212;27.908;2024-03-02T09:20:09;15.50;;;5.07;;
71038;SDS011;58692;43.212;27.908;2024-03-02T09:22:36;16.55;;;4.95;;
71038;SDS011;58692;43.212;27.908;2024-03-02T09:25:01;12.27;;;4.50;;
71038;SDS011;58692;43.212;27.908;2024-03-02T09:27:27;13.95;;;4.53;;
71038;SDS011;58692;43.212;27.908;2024-03-02T09:29:54;10.55;;;4.95;;
71038;SDS011;58692;43.212;27.908;2024-03-02T09:32:19;11.83;;;4.20;;
71038;SDS011;58692;43.212;27.908;2024-03-02T09:34:45;12.87;;;4.27;;
71038;SDS011;58692;43.212;27.908;2024-03-02T09:37:13;12.35;;;4.45;;
71038;SDS011;58692;43.212;27.908;2024-03-02T09:39:38;12.20;;;4.47;;
71038;SDS011;58692;43.212;27.908;2024-03-02T09:42:05;15.57;;;4.60;;
71038;SDS011;58692;43.212;27.908;2024-03-02T09:44:31;14.43;;;4.70;;
71038;SDS011;58692;43.212;27.908;2024-03-02T09:46:58;15.65;;;4.60;;
71038;SDS011;58692;43.212;27.908;2024-03-02T09:49:23;15.07;;;4.63;;
71038;SDS011;58692;43.212;27.908;2024-03-02T09:51:49;14.48;;;4.50;;
71038;SDS011;58692;43.212;27.908;2024-03-02T09:54:16;15.87;;;3.93;;
71038;SDS011;58692;43.212;27.908;2024-03-02T09:56:42;13.02;;;4.40;;
71038;SDS011;58692;43.212;27.908;2024-03-02T09:59:08;11.87;;;4.53;;
71038;SDS011;58692;43.212;27.908;2024-03-02T10:01:33;10.88;;;4.43;;
71038;SDS011;58692;43.212;27.908;2024-03-02T10:04:00;13.32;;;3.95;;
71038;SDS011;58692;43.212;27.908;2024-03-02T10:06:27;13.15;;;4.65;;
71038;SDS011;58692;43.212;27.908;2024-03-02T10:08:54;14.43;;;5.10;;
71038;SDS011;58692;43.212;27.908;2024-03-02T10:11:28;10.80;;;4.22;;
71038;SDS011;58692;43.212;27.908;2024-03-02T10:16:38;12.75;;;4.72;;
71038;SDS011;58692;43.212;27.908;2024-03-02T10:19:14;11.45;;;4.13;;
71038;SDS011;58692;43.212;27.908;2024-03-02T10:21:41;14.33;;;4.77;;
71038;SDS011;58692;43.212;27.908;2024-03-02T10:24:07;15.30;;;5.03;;
71038;SDS011;58692;43.212;27.908;2024-03-02T10:26:33;12.95;;;4.45;;
71038;SDS011;58692;43.212;27.908;2024-03-02T10:28:59;15.57;;;4.67;;
71038;SDS011;58692;43.212;27.908;2024-03-02T10:31:25;12.07;;;4.93;;
71038;SDS011;58692;43.212;27.908;2024-03-02T10:33:55;15.23;;;4.70;;
71038;SDS011;58692;43.212;27.908;2024-03-02T10:36:20;17.90;;;4.88;;
71038;SDS011;58692;43.212;27.908;2024-03-02T10:38:46;13.40;;;5.05;;
71038;SDS011;58692;43.212;27.908;2024-03-02T10:43:55;13.27;;;4.78;;
71038;SDS011;58692;43.212;27.908;2024-03-02T10:46:28;11.57;;;4.87;;
71038;SDS011;58692;43.212;27.908;2024-03-02T10:48:56;11.70;;;4.38;;
71038;SDS011;58692;43.212;27.908;2024-03-02T10:51:24;15.02;;;4.70;;
71038;SDS011;58692;43.212;27.908;2024-03-02T10:53:51;13.70;;;4.93;;
71038;SDS011;58692;43.212;27.908;2024-03-02T10:56:21;15.05;;;5.05;;
71038;SDS011;58692;43.212;27.908;2024-03-02T10:58:50;14.63;;;4.30;;
71038;SDS011;58692;43.212;27.908;2024-03-02T11:01:25;14.07;;;5.20;;
71038;SDS011;58692;43.212;27.908;2024-03-02T11:03:52;15.57;;;5.15;;
71038;SDS011;58692;43.212;27.908;2024-03-02T11:06:18;15.32;;;4.95;;
71038;SDS011;58692;43.212;27.908;2024-03-02T11:08:44;11.65;;;4.32;;
71038;SDS011;58692;43.212;27.908;2024-03-02T11:11:15;10.67;;;4.43;;
71038;SDS011;58692;43.212;27.908;2024-03-02T11:13:48;9.65;;;4.20;;
71038;SDS011;58692;43.212;27.908;2024-03-02T11:19:02;18.77;;;5.10;;
71038;SDS011;58692;43.212;27.908;2024-03-02T11:21:32;11.13;;;4.68;;
71038;SDS011;58692;43.212;27.908;2024-03-02T11:23:59;13.57;;;4.40;;
71038;SDS011;58692;43.212;27.908;2024-03-02T11:26:27;14.57;;;5.15;;
71038;SDS011;58692;43.212;27.908;2024-03-02T11:28:53;11.02;;;4.25;;
71038;SDS011;58692;43.212;27.908;2024-03-02T11:31:21;15.25;;;5.43;;
71038;SDS011;58692;43.212;27.908;2024-03-02T11:33:46;12.10;;;4.50;;
71038;SDS011;58692;43.212;27.908;2024-03-02T11:36:12;15.13;;;5.05;;
71038;SDS011;58692;43.212;27.908;2024-03-02T11:38:37;12.53;;;4.33;;
71038;SDS011;58692;43.212;27.908;2024-03-02T11:41:06;11.40;;;3.80;;
71038;SDS011;58692;43.212;27.908;2024-03-02T11:43:36;14.77;;;4.32;;
71038;SDS011;58692;43.212;27.908;2024-03-02T11:46:05;12.80;;;4.63;;
71038;SDS011;58692;43.212;27.908;2024-03-02T11:48:34;10.50;;;3.75;;
71038;SDS011;58692;43.212;27.908;2024-03-02T11:51:02;13.43;;;4.28;;
71038;SDS011;58692;43.212;27.908;2024-03-02T11:53:28;14.10;;;4.47;;
71038;SDS011;58692;43.212;27.908;2024-03-02T11:55:55;13.95;;;4.35;;
71038;SDS011;58692;43.212;27.908;2024-03-02T11:58:21;11.05;;;4.05;;
71038;SDS011;58692;43.212;27.908;2024-03-02T12:00:50;12.32;;;4.82;;
71038;SDS011;58692;43.212;27.908;2024-03-02T12:03:16;14.93;;;4.53;;
71038;SDS011;58692;43.212;27.908;2024-03-02T12:05:42;11.60;;;4.22;;
71038;SDS011;58692;43.212;27.908;2024-03-02T12:08:08;12.27;;;4.37;;
71038;SDS011;58692;43.212;27.908;2024-03-02T12:10:34;12.18;;;4.28;;
71038;SDS011;58692;43.212;27.908;2024-03-02T12:13:02;13.77;;;4.80;;
71038;SDS011;58692;43.212;27.908;2024-03-02T12:15:29;14.90;;;4.53;;
71038;SDS011;58692;43.212;27.908;2024-03-02T12:17:57;13.38;;;4.35;;
71038;SDS011;58692;43.212;27.908;2024-03-02T12:20:24;16.50;;;4.30;;
71038;SDS011;58692;43.212;27.908;2024-03-02T12:22:51;12.00;;;4.00;;
71038;SDS011;58692;43.212;27.908;2024-03-02T12:25:19;14.23;;;4.32;;
71038;SDS011;58692;43.212;27.908;2024-03-02T12:27:46;10.55;;;4.30;;
71038;SDS011;58692;43.212;27.908;2024-03-02T12:30:14;12.25;;;4.50;;
71038;SDS011;58692;43.212;27.908;2024-03-02T12:32:41;11.50;;;4.27;;
71038;SDS011;58692;43.212;27.908;2024-03-02T12:35:07;11.10;;;3.92;;
71038;SDS011;58692;43.212;27.908;2024-03-02T12:37:41;11.23;;;4.10;;
71038;SDS011;58692;43.212;27.908;2024-03-02T12:40:11;10.27;;;4.03;;
71038;SDS011;58692;43.212;27.908;2024-03-02T12:42:38;12.13;;;4.43;;
71038;SDS011;58692;43.212;27.908;2024-03-02T12:45:07;11.88;;;4.57;;
71038;SDS011;58692;43.212;27.908;2024-03-02T12:47:33;14.13;;;5.07;;
71038;SDS011;58692;43.212;27.908;2024-03-02T12:49:59;11.38;;;4.20;;
71038;SDS011;58692;43.212;27.908;2024-03-02T12:52:25;13.60;;;4.67;;
71038;SDS011;58692;43.212;27.908;2024-03-02T12:54:51;12.60;;;4.45;;
71038;SDS011;58692;43.212;27.908;2024-03-02T12:57:18;11.82;;;4.50;;
71038;SDS011;58692;43.212;27.908;2024-03-02T12:59:45;15.17;;;4.50;;
71038;SDS011;58692;43.212;27.908;2024-03-02T13:02:19;12.63;;;4.25;;
71038;SDS011;58692;43.212;27.908;2024-03-02T13:04:52;19.98;;;4.93;;
71038;SDS011;58692;43.212;27.908;2024-03-02T13:07:19;12.93;;;4.35;;
71038;SDS011;58692;43.212;27.908;2024-03-02T13:09:48;13.45;;;4.72;;
71038;SDS011;58692;43.212;27.908;2024-03-02T13:12:15;12.30;;;4.60;;
71038;SDS011;58692;43.212;27.908;2024-03-02T13:14:41;13.10;;;5.22;;
71038;SDS011;58692;43.212;27.908;2024-03-02T13:17:08;12.70;;;5.10;;
71038;SDS011;58692;43.212;27.908;2024-03-02T13:19:34;14.20;;;5.28;;
71038;SDS011;58692;43.212;27.908;2024-03-02T13:22:00;13.60;;;5.30;;
71038;SDS011;58692;43.212;27.908;2024-03-02T13:24:28;17.73;;;6.38;;
71038;SDS011;58692;43.212;27.908;2024-03-02T13:26:55;13.48;;;6.15;;
71038;SDS011;58692;43.212;27.908;2024-03-02T13:29:23;14.55;;;5.55;;
71038;SDS011;58692;43.212;27.908;2024-03-02T13:31:49;14.77;;;6.03;;
71038;SDS011;58692;43.212;27.908;2024-03-02T13:34:15;15.32;;;6.38;;
71038;SDS011;58692;43.212;27.908;2024-03-02T13:36:40;14.88;;;6.70;;
71038;SDS011;58692;43.212;27.908;2024-03-02T13:39:06;18.33;;;6.13;;
71038;SDS011;58692;43.212;27.908;2024-03-02T13:41:34;16.80;;;6.55;;
71038;SDS011;58692;43.212;27.908;2024-03-02T13:44:00;12.80;;;5.68;;
71038;SDS011;58692;43.212;27.908;2024-03-02T13:46:26;12.97;;;6.03;;
71038;SDS011;58692;43.212;27.908;2024-03-02T13:48:52;22.42;;;7.53;;
71038;SDS011;58692;43.212;27.908;2024-03-02T13:51:19;14.13;;;6.55;;
71038;SDS011;58692;43.212;27.908;2024-03-02T13:53:45;11.87;;;5.67;;
71038;SDS011;58692;43.212;27.908;2024-03-02T13:56:11;16.60;;;6.75;;
71038;SDS011;58692;43.212;27.908;2024-03-02T13:58:37;14.73;;;5.95;;
71038;SDS011;58692;43.212;27.908;2024-03-02T14:01:03;14.83;;;5.90;;
71038;SDS011;58692;43.212;27.908;2024-03-02T14:03:30;15.65;;;6.00;;
71038;SDS011;58692;43.212;27.908;2024-03-02T14:05:56;16.75;;;6.00;;
71038;SDS011;58692;43.212;27.908;2024-03-02T14:08:21;12.77;;;5.72;;
71038;SDS011;58692;43.212;27.908;2024-03-02T14:10:48;13.93;;;5.53;;
71038;SDS011;58692;43.212;27.908;2024-03-02T14:13:14;12.68;;;5.20;;
71038;SDS011;58692;43.212;27.908;2024-03-02T14:15:41;18.30;;;6.03;;
71038;SDS011;58692;43.212;27.908;2024-03-02T14:18:07;13.00;;;5.65;;
71038;SDS011;58692;43.212;27.908;2024-03-02T14:20:35;16.97;;;5.93;;
71038;SDS011;58692;43.212;27.908;2024-03-02T14:23:01;15.68;;;6.50;;
71038;SDS011;58692;43.212;27.908;2024-03-02T14:25:28;15.13;;;5.95;;